sensor_id;sensor_type;location;lat;lon;timestamp;P1;durP1;ratioP1;P2;durP2;ratioP2
12467;SDS011;57850;52.922;6.256;2022-07-23T00:01:25;6.18;;;4.00;;
12467;SDS011;57850;52.922;6.256;2022-07-23T00:03:54;6.57;;;4.60;;
12467;SDS011;57850;52.922;6.256;2022-07-23T00:06:20;9.75;;;4.25;;
12467;SDS011;57850;52.922;6.256;2022-07-23T00:08:47;6.53;;;4.78;;
12467;SDS011;57850;52.922;6.256;2022-07-23T00:11:14;5.70;;;4.82;;
12467;SDS011;57850;52.922;6.256;2022-07-23T00:13:41;6.45;;;4.85;;
12467;SDS011;57850;52.922;6.256;2022-07-23T00:16:08;5.97;;;5.13;;
12467;SDS011;57850;52.922;6.256;2022-07-23T00:18:36;5.78;;;4.97;;
12467;SDS011;57850;52.922;6.256;2022-07-23T00:21:02;7.65;;;5.50;;
12467;SDS011;57850;52.922;6.256;2022-07-23T00:23:29;5.70;;;4.68;;
12467;SDS011;57850;52.922;6.256;2022-07-23T00:25:56;5.65;;;4.85;;
12467;SDS011;57850;52.922;6.256;2022-07-23T00:28:22;6.53;;;5.03;;
12467;SDS011;57850;52.922;6.256;2022-07-23T00:30:48;6.82;;;4.53;;
12467;SDS011;57850;52.922;6.256;2022-07-23T00:33:15;4.97;;;3.85;;
12467;SDS011;57850;52.922;6.256;2022-07-23T00:35:43;5.20;;;4.70;;
12467;SDS011;57850;52.922;6.256;2022-07-23T00:38:09;6.85;;;4.30;;
12467;SDS011;57850;52.922;6.256;2022-07-23T00:40:37;5.65;;;5.13;;
12467;SDS011;57850;52.922;6.256;2022-07-23T00:43:04;6.93;;;5.40;;
12467;SDS011;57850;52.922;6.256;2022-07-23T00:45:30;10.52;;;5.18;;
12467;SDS011;57850;52.922;6.256;2022-07-23T00:47:57;5.88;;;5.22;;
12467;SDS011;57850;52.922;6.256;2022-07-23T00:50:24;6.85;;;5.45;;
12467;SDS011;57850;52.922;6.256;2022-07-23T00:52:52;7.25;;;5.95;;
12467;SDS011;57850;52.922;6.256;2022-07-23T00:55:19;5.80;;;4.95;;
12467;SDS011;57850;52.922;6.256;2022-07-23T00:57:46;7.95;;;4.85;;
12467;SDS011;57850;52.922;6.256;2022-07-23T01:00:13;7.65;;;4.97;;
12467;SDS011;57850;52.922;6.256;2022-07-23T01:02:41;4.80;;;4.40;;
12467;SDS011;57850;52.922;6.256;2022-07-23T01:05:09;5.00;;;4.50;;
12467;SDS011;57850;52.922;6.256;2022-07-23T01:07:36;4.82;;;3.80;;
12467;SDS011;57850;52.922;6.256;2022-07-23T01:10:04;6.00;;;3.70;;
12467;SDS011;57850;52.922;6.256;2022-07-23T01:12:52;4.47;;;3.33;;
12467;SDS011;57850;52.922;6.256;2022-07-23T01:15:19;8.30;;;3.15;;
12467;SDS011;57850;52.922;6.256;2022-07-23T01:17:46;2.22;;;2.10;;
12467;SDS011;57850;52.922;6.256;2022-07-23T01:20:12;2.72;;;2.40;;
12467;SDS011;57850;52.922;6.256;2022-07-23T01:22:40;9.95;;;2.55;;
12467;SDS011;57850;52.922;6.256;2022-07-23T01:25:07;3.88;;;2.85;;
12467;SDS011;57850;52.922;6.256;2022-07-23T01:27:34;3.42;;;3.10;;
12467;SDS011;57850;52.922;6.256;2022-07-23T01:30:01;3.47;;;3.17;;
12467;SDS011;57850;52.922;6.256;2022-07-23T01:32:29;3.97;;;2.92;;
12467;SDS011;57850;52.922;6.256;2022-07-23T01:34:55;2.88;;;2.65;;
12467;SDS011;57850;52.922;6.256;2022-07-23T01:37:22;3.33;;;2.60;;
12467;SDS011;57850;52.922;6.256;2022-07-23T01:39:50;2.60;;;2.40;;
12467;SDS011;57850;52.922;6.256;2022-07-23T01:42:16;4.63;;;3.05;;
12467;SDS011;57850;52.922;6.256;2022-07-23T01:44:43;3.42;;;3.13;;
12467;SDS011;57850;52.922;6.256;2022-07-23T01:47:10;3.50;;;3.10;;
12467;SDS011;57850;52.922;6.256;2022-07-23T01:49:36;4.82;;;3.33;;
12467;SDS011;57850;52.922;6.256;2022-07-23T01:52:05;3.75;;;3.45;;
12467;SDS011;57850;52.922;6.256;2022-07-23T01:54:35;4.18;;;2.90;;
12467;SDS011;57850;52.922;6.256;2022-07-23T01:57:04;3.10;;;2.70;;
12467;SDS011;57850;52.922;6.256;2022-07-23T01:59:30;2.95;;;2.42;;
12467;SDS011;57850;52.922;6.256;2022-07-23T02:01:57;5.85;;;2.35;;
12467;SDS011;57850;52.922;6.256;2022-07-23T02:04:24;2.65;;;2.45;;
12467;SDS011;57850;52.922;6.256;2022-07-23T02:06:51;4.68;;;2.08;;
12467;SDS011;57850;52.922;6.256;2022-07-23T02:09:18;5.57;;;2.10;;
12467;SDS011;57850;52.922;6.256;2022-07-23T02:11:45;2.50;;;2.30;;
12467;SDS011;57850;52.922;6.256;2022-07-23T02:14:13;2.35;;;2.15;;
12467;SDS011;57850;52.922;6.256;2022-07-23T02:16:39;2.30;;;2.10;;
12467;SDS011;57850;52.922;6.256;2022-07-23T02:19:06;1.92;;;1.73;;
12467;SDS011;57850;52.922;6.256;2022-07-23T02:21:32;2.20;;;1.70;;
12467;SDS011;57850;52.922;6.256;2022-07-23T02:23:59;1.80;;;1.70;;
12467;SDS011;57850;52.922;6.256;2022-07-23T02:26:25;1.70;;;1.60;;
12467;SDS011;57850;52.922;6.256;2022-07-23T02:28:52;1.30;;;1.20;;
12467;SDS011;57850;52.922;6.256;2022-07-23T02:31:20;1.35;;;1.25;;
12467;SDS011;57850;52.922;6.256;2022-07-23T02:33:46;1.60;;;1.50;;
12467;SDS011;57850;52.922;6.256;2022-07-23T02:36:13;4.32;;;1.58;;
12467;SDS011;57850;52.922;6.256;2022-07-23T02:38:39;1.75;;;1.50;;
12467;SDS011;57850;52.922;6.256;2022-07-23T02:41:06;1.70;;;1.60;;
12467;SDS011;57850;52.922;6.256;2022-07-23T02:43:32;2.30;;;1.80;;
12467;SDS011;57850;52.922;6.256;2022-07-23T02:45:59;1.83;;;1.52;;
12467;SDS011;57850;52.922;6.256;2022-07-23T02:48:27;2.25;;;1.40;;
12467;SDS011;57850;52.922;6.256;2022-07-23T02:50:54;1.38;;;1.00;;
12467;SDS011;57850;52.922;6.256;2022-07-23T02:53:21;1.30;;;1.20;;
12467;SDS011;57850;52.922;6.256;2022-07-23T02:55:47;3.00;;;1.70;;
12467;SDS011;57850;52.922;6.256;2022-07-23T02:58:14;1.38;;;1.10;;
12467;SDS011;57850;52.922;6.256;2022-07-23T03:00:41;1.48;;;1.38;;
12467;SDS011;57850;52.922;6.256;2022-07-23T03:03:07;1.80;;;1.70;;
12467;SDS011;57850;52.922;6.256;2022-07-23T03:05:35;2.10;;;1.48;;
12467;SDS011;57850;52.922;6.256;2022-07-23T03:08:01;1.60;;;1.50;;
12467;SDS011;57850;52.922;6.256;2022-07-23T03:10:28;1.15;;;1.05;;
12467;SDS011;57850;52.922;6.256;2022-07-23T03:12:54;1.40;;;1.30;;
12467;SDS011;57850;52.922;6.256;2022-07-23T03:15:21;3.25;;;1.77;;
12467;SDS011;57850;52.922;6.256;2022-07-23T03:17:47;2.08;;;1.73;;
12467;SDS011;57850;52.922;6.256;2022-07-23T03:20:14;1.77;;;1.67;;
12467;SDS011;57850;52.922;6.256;2022-07-23T03:22:42;5.07;;;2.35;;
12467;SDS011;57850;52.922;6.256;2022-07-23T03:25:08;4.15;;;2.25;;
12467;SDS011;57850;52.922;6.256;2022-07-23T03:27:35;2.72;;;2.53;;
12467;SDS011;57850;52.922;6.256;2022-07-23T03:30:02;2.47;;;2.25;;
12467;SDS011;57850;52.922;6.256;2022-07-23T03:32:29;3.72;;;2.40;;
12467;SDS011;57850;52.922;6.256;2022-07-23T03:34:56;2.85;;;2.35;;
12467;SDS011;57850;52.922;6.256;2022-07-23T03:37:23;2.47;;;2.10;;
12467;SDS011;57850;52.922;6.256;2022-07-23T03:39:51;3.00;;;1.90;;
12467;SDS011;57850;52.922;6.256;2022-07-23T03:42:17;2.38;;;2.17;;
12467;SDS011;57850;52.922;6.256;2022-07-23T03:44:44;2.47;;;2.28;;
12467;SDS011;57850;52.922;6.256;2022-07-23T03:47:10;2.75;;;2.45;;
12467;SDS011;57850;52.922;6.256;2022-07-23T03:49:37;2.95;;;2.50;;
12467;SDS011;57850;52.922;6.256;2022-07-23T03:52:03;2.97;;;2.25;;
12467;SDS011;57850;52.922;6.256;2022-07-23T03:54:30;2.97;;;2.40;;
12467;SDS011;57850;52.922;6.256;2022-07-23T03:56:58;4.03;;;2.70;;
12467;SDS011;57850;52.922;6.256;2022-07-23T03:59:25;4.15;;;2.70;;
12467;SDS011;57850;52.922;6.256;2022-07-23T04:01:51;2.97;;;2.70;;
12467;SDS011;57850;52.922;6.256;2022-07-23T04:04:17;2.58;;;2.35;;
12467;SDS011;57850;52.922;6.256;2022-07-23T04:06:44;2.60;;;2.40;;
12467;SDS011;57850;52.922;6.256;2022-07-23T04:09:11;3.33;;;2.35;;
12467;SDS011;57850;52.922;6.256;2022-07-23T04:11:38;3.78;;;2.40;;
12467;SDS011;57850;52.922;6.256;2022-07-23T04:14:06;3.53;;;2.78;;
12467;SDS011;57850;52.922;6.256;2022-07-23T04:16:32;5.22;;;2.50;;
12467;SDS011;57850;52.922;6.256;2022-07-23T04:18:59;4.78;;;2.65;;
12467;SDS011;57850;52.922;6.256;2022-07-23T04:21:26;3.58;;;2.63;;
12467;SDS011;57850;52.922;6.256;2022-07-23T04:23:52;2.50;;;2.30;;
12467;SDS011;57850;52.922;6.256;2022-07-23T04:26:19;3.28;;;2.83;;
12467;SDS011;57850;52.922;6.256;2022-07-23T04:28:46;5.00;;;2.65;;
12467;SDS011;57850;52.922;6.256;2022-07-23T04:31:14;4.00;;;3.60;;
12467;SDS011;57850;52.922;6.256;2022-07-23T04:33:40;4.30;;;3.80;;
12467;SDS011;57850;52.922;6.256;2022-07-23T04:36:07;8.00;;;4.18;;
12467;SDS011;57850;52.922;6.256;2022-07-23T04:38:33;3.85;;;3.45;;
12467;SDS011;57850;52.922;6.256;2022-07-23T04:41:00;5.57;;;4.53;;
12467;SDS011;57850;52.922;6.256;2022-07-23T04:43:26;5.10;;;4.43;;
12467;SDS011;57850;52.922;6.256;2022-07-23T04:45:53;6.80;;;4.25;;
12467;SDS011;57850;52.922;6.256;2022-07-23T04:48:21;6.05;;;4.20;;
12467;SDS011;57850;52.922;6.256;2022-07-23T04:50:47;8.38;;;5.15;;
12467;SDS011;57850;52.922;6.256;2022-07-23T04:53:14;7.40;;;5.38;;
12467;SDS011;57850;52.922;6.256;2022-07-23T04:55:40;12.82;;;6.38;;
12467;SDS011;57850;52.922;6.256;2022-07-23T04:58:07;7.60;;;6.03;;
12467;SDS011;57850;52.922;6.256;2022-07-23T05:00:34;10.57;;;6.00;;
12467;SDS011;57850;52.922;6.256;2022-07-23T05:03:00;13.10;;;6.25;;
12467;SDS011;57850;52.922;6.256;2022-07-23T05:05:28;7.93;;;6.18;;
12467;SDS011;57850;52.922;6.256;2022-07-23T05:07:55;7.40;;;5.82;;
12467;SDS011;57850;52.922;6.256;2022-07-23T05:10:21;10.48;;;5.70;;
12467;SDS011;57850;52.922;6.256;2022-07-23T05:12:48;7.68;;;6.30;;
12467;SDS011;57850;52.922;6.256;2022-07-23T05:15:14;8.45;;;5.57;;
12467;SDS011;57850;52.922;6.256;2022-07-23T05:17:41;11.75;;;5.70;;
12467;SDS011;57850;52.922;6.256;2022-07-23T05:20:07;8.85;;;6.13;;
12467;SDS011;57850;52.922;6.256;2022-07-23T05:22:36;8.25;;;6.00;;
12467;SDS011;57850;52.922;6.256;2022-07-23T05:25:02;7.03;;;6.35;;
12467;SDS011;57850;52.922;6.256;2022-07-23T05:27:30;13.57;;;7.22;;
12467;SDS011;57850;52.922;6.256;2022-07-23T05:29:57;9.40;;;6.63;;
12467;SDS011;57850;52.922;6.256;2022-07-23T05:32:23;9.20;;;6.63;;
12467;SDS011;57850;52.922;6.256;2022-07-23T05:34:50;11.05;;;7.20;;
12467;SDS011;57850;52.922;6.256;2022-07-23T05:37:16;9.65;;;7.80;;
12467;SDS011;57850;52.922;6.256;2022-07-23T05:39:44;11.00;;;7.25;;
12467;SDS011;57850;52.922;6.256;2022-07-23T05:42:11;14.13;;;8.50;;
12467;SDS011;57850;52.922;6.256;2022-07-23T05:44:37;9.27;;;7.00;;
12467;SDS011;57850;52.922;6.256;2022-07-23T05:47:04;10.30;;;8.02;;
12467;SDS011;57850;52.922;6.256;2022-07-23T05:49:30;9.32;;;7.47;;
12467;SDS011;57850;52.922;6.256;2022-07-23T05:51:57;12.73;;;6.75;;
12467;SDS011;57850;52.922;6.256;2022-07-23T05:54:23;10.02;;;6.85;;
12467;SDS011;57850;52.922;6.256;2022-07-23T05:56:51;14.52;;;7.35;;
12467;SDS011;57850;52.922;6.256;2022-07-23T05:59:18;11.43;;;7.75;;
12467;SDS011;57850;52.922;6.256;2022-07-23T06:01:44;9.68;;;7.55;;
12467;SDS011;57850;52.922;6.256;2022-07-23T06:04:11;7.97;;;6.82;;
12467;SDS011;57850;52.922;6.256;2022-07-23T06:06:37;10.25;;;7.40;;
12467;SDS011;57850;52.922;6.256;2022-07-23T06:09:04;10.00;;;6.55;;
12467;SDS011;57850;52.922;6.256;2022-07-23T06:11:30;11.70;;;7.43;;
12467;SDS011;57850;52.922;6.256;2022-07-23T06:13:58;7.60;;;6.53;;
12467;SDS011;57850;52.922;6.256;2022-07-23T06:16:25;8.98;;;6.35;;
12467;SDS011;57850;52.922;6.256;2022-07-23T06:18:51;9.68;;;5.97;;
12467;SDS011;57850;52.922;6.256;2022-07-23T06:21:18;9.05;;;5.05;;
12467;SDS011;57850;52.922;6.256;2022-07-23T06:23:44;6.00;;;5.05;;
12467;SDS011;57850;52.922;6.256;2022-07-23T06:26:11;5.38;;;4.43;;
12467;SDS011;57850;52.922;6.256;2022-07-23T06:28:37;6.93;;;4.72;;
12467;SDS011;57850;52.922;6.256;2022-07-23T06:31:05;5.78;;;3.42;;
12467;SDS011;57850;52.922;6.256;2022-07-23T06:33:32;7.20;;;3.58;;
12467;SDS011;57850;52.922;6.256;2022-07-23T06:35:59;6.25;;;3.83;;
12467;SDS011;57850;52.922;6.256;2022-07-23T06:38:26;8.38;;;4.60;;
12467;SDS011;57850;52.922;6.256;2022-07-23T06:40:52;7.32;;;3.83;;
12467;SDS011;57850;52.922;6.256;2022-07-23T06:43:18;7.05;;;3.50;;
12467;SDS011;57850;52.922;6.256;2022-07-23T06:45:45;4.68;;;2.95;;
12467;SDS011;57850;52.922;6.256;2022-07-23T06:48:13;7.05;;;3.15;;
12467;SDS011;57850;52.922;6.256;2022-07-23T06:50:39;6.97;;;3.08;;
12467;SDS011;57850;52.922;6.256;2022-07-23T06:53:06;4.65;;;2.60;;
12467;SDS011;57850;52.922;6.256;2022-07-23T06:55:32;2.92;;;2.35;;
12467;SDS011;57850;52.922;6.256;2022-07-23T06:58:03;4.70;;;2.33;;
12467;SDS011;57850;52.922;6.256;2022-07-23T07:00:29;4.03;;;2.05;;
12467;SDS011;57850;52.922;6.256;2022-07-23T07:02:57;3.55;;;1.73;;
12467;SDS011;57850;52.922;6.256;2022-07-23T07:05:25;3.50;;;1.55;;
12467;SDS011;57850;52.922;6.256;2022-07-23T07:07:52;3.17;;;1.45;;
12467;SDS011;57850;52.922;6.256;2022-07-23T07:10:19;4.07;;;1.48;;
12467;SDS011;57850;52.922;6.256;2022-07-23T07:12:45;2.97;;;1.83;;
12467;SDS011;57850;52.922;6.256;2022-07-23T07:15:12;2.40;;;1.92;;
12467;SDS011;57850;52.922;6.256;2022-07-23T07:17:38;4.70;;;1.60;;
12467;SDS011;57850;52.922;6.256;2022-07-23T07:20:05;4.65;;;1.80;;
12467;SDS011;57850;52.922;6.256;2022-07-23T07:22:35;1.38;;;1.27;;
12467;SDS011;57850;52.922;6.256;2022-07-23T07:25:01;5.70;;;1.45;;
12467;SDS011;57850;52.922;6.256;2022-07-23T07:27:28;2.33;;;1.13;;
12467;SDS011;57850;52.922;6.256;2022-07-23T07:29:55;2.78;;;1.35;;
12467;SDS011;57850;52.922;6.256;2022-07-23T07:32:21;2.05;;;1.40;;
12467;SDS011;57850;52.922;6.256;2022-07-23T07:34:47;2.42;;;1.50;;
12467;SDS011;57850;52.922;6.256;2022-07-23T07:37:14;2.88;;;1.48;;
12467;SDS011;57850;52.922;6.256;2022-07-23T07:39:42;2.85;;;1.40;;
12467;SDS011;57850;52.922;6.256;2022-07-23T07:42:08;6.38;;;1.20;;
12467;SDS011;57850;52.922;6.256;2022-07-23T07:44:35;1.95;;;1.30;;
12467;SDS011;57850;52.922;6.256;2022-07-23T07:47:02;1.95;;;1.40;;
12467;SDS011;57850;52.922;6.256;2022-07-23T07:49:29;2.45;;;1.45;;
12467;SDS011;57850;52.922;6.256;2022-07-23T07:51:55;1.73;;;1.42;;
12467;SDS011;57850;52.922;6.256;2022-07-23T07:54:22;3.97;;;1.48;;
12467;SDS011;57850;52.922;6.256;2022-07-23T07:56:49;2.08;;;1.50;;
12467;SDS011;57850;52.922;6.256;2022-07-23T07:59:16;4.20;;;1.40;;
12467;SDS011;57850;52.922;6.256;2022-07-23T08:01:43;3.30;;;1.55;;
12467;SDS011;57850;52.922;6.256;2022-07-23T08:04:09;1.67;;;0.95;;
12467;SDS011;57850;52.922;6.256;2022-07-23T08:06:36;2.17;;;1.38;;
12467;SDS011;57850;52.922;6.256;2022-07-23T08:09:03;1.95;;;1.23;;
12467;SDS011;57850;52.922;6.256;2022-07-23T08:11:30;2.45;;;1.42;;
12467;SDS011;57850;52.922;6.256;2022-07-23T08:13:58;1.20;;;1.05;;
12467;SDS011;57850;52.922;6.256;2022-07-23T08:16:24;2.13;;;1.20;;
12467;SDS011;57850;52.922;6.256;2022-07-23T08:18:51;1.33;;;1.10;;
12467;SDS011;57850;52.922;6.256;2022-07-23T08:21:17;2.40;;;1.00;;
12467;SDS011;57850;52.922;6.256;2022-07-23T08:23:44;1.77;;;1.00;;
12467;SDS011;57850;52.922;6.256;2022-07-23T08:26:10;4.68;;;1.00;;
12467;SDS011;57850;52.922;6.256;2022-07-23T08:28:37;2.25;;;1.00;;
12467;SDS011;57850;52.922;6.256;2022-07-23T08:31:05;1.00;;;1.00;;
12467;SDS011;57850;52.922;6.256;2022-07-23T08:33:32;1.38;;;1.00;;
12467;SDS011;57850;52.922;6.256;2022-07-23T08:35:58;1.27;;;0.90;;
12467;SDS011;57850;52.922;6.256;2022-07-23T08:38:25;0.98;;;0.90;;
12467;SDS011;57850;52.922;6.256;2022-07-23T08:40:52;2.22;;;1.20;;
12467;SDS011;57850;52.922;6.256;2022-07-23T08:43:21;2.60;;;1.10;;
12467;SDS011;57850;52.922;6.256;2022-07-23T08:45:49;1.30;;;1.10;;
12467;SDS011;57850;52.922;6.256;2022-07-23T08:48:19;2.50;;;1.20;;
12467;SDS011;57850;52.922;6.256;2022-07-23T08:50:48;1.83;;;1.20;;
12467;SDS011;57850;52.922;6.256;2022-07-23T08:53:16;1.58;;;1.40;;
12467;SDS011;57850;52.922;6.256;2022-07-23T08:55:43;2.75;;;1.38;;
12467;SDS011;57850;52.922;6.256;2022-07-23T08:58:11;1.52;;;1.30;;
12467;SDS011;57850;52.922;6.256;2022-07-23T09:00:38;2.45;;;1.20;;
12467;SDS011;57850;52.922;6.256;2022-07-23T09:03:04;1.40;;;1.30;;
12467;SDS011;57850;52.922;6.256;2022-07-23T09:05:33;1.40;;;1.30;;
12467;SDS011;57850;52.922;6.256;2022-07-23T09:08:07;2.92;;;1.10;;
12467;SDS011;57850;52.922;6.256;2022-07-23T09:10:46;1.75;;;1.02;;
12467;SDS011;57850;52.922;6.256;2022-07-23T09:13:31;5.18;;;1.30;;
12467;SDS011;57850;52.922;6.256;2022-07-23T09:16:01;2.53;;;1.40;;
12467;SDS011;57850;52.922;6.256;2022-07-23T09:18:32;1.73;;;1.40;;
12467;SDS011;57850;52.922;6.256;2022-07-23T09:21:09;1.33;;;1.08;;
12467;SDS011;57850;52.922;6.256;2022-07-23T09:23:41;1.30;;;1.20;;
12467;SDS011;57850;52.922;6.256;2022-07-23T09:26:18;1.48;;;1.02;;
12467;SDS011;57850;52.922;6.256;2022-07-23T09:28:50;4.45;;;1.20;;
12467;SDS011;57850;52.922;6.256;2022-07-23T09:31:18;1.10;;;1.00;;
12467;SDS011;57850;52.922;6.256;2022-07-23T09:33:44;2.83;;;1.30;;
12467;SDS011;57850;52.922;6.256;2022-07-23T09:36:12;2.47;;;1.20;;
12467;SDS011;57850;52.922;6.256;2022-07-23T09:38:47;1.23;;;1.13;;
12467;SDS011;57850;52.922;6.256;2022-07-23T09:41:14;1.60;;;1.45;;
12467;SDS011;57850;52.922;6.256;2022-07-23T09:43:41;2.65;;;1.30;;
12467;SDS011;57850;52.922;6.256;2022-07-23T09:46:17;1.65;;;1.20;;
12467;SDS011;57850;52.922;6.256;2022-07-23T09:48:45;1.85;;;1.20;;
12467;SDS011;57850;52.922;6.256;2022-07-23T09:51:13;2.63;;;1.20;;
12467;SDS011;57850;52.922;6.256;2022-07-23T09:53:40;1.67;;;1.45;;
12467;SDS011;57850;52.922;6.256;2022-07-23T09:56:07;1.88;;;1.40;;
12467;SDS011;57850;52.922;6.256;2022-07-23T09:58:35;1.50;;;1.40;;
12467;SDS011;57850;52.922;6.256;2022-07-23T10:01:10;3.30;;;1.92;;
12467;SDS011;57850;52.922;6.256;2022-07-23T10:03:38;1.70;;;1.60;;
12467;SDS011;57850;52.922;6.256;2022-07-23T10:06:07;3.53;;;1.75;;
12467;SDS011;57850;52.922;6.256;2022-07-23T10:08:35;1.98;;;1.75;;
12467;SDS011;57850;52.922;6.256;2022-07-23T10:11:04;2.08;;;1.73;;
12467;SDS011;57850;52.922;6.256;2022-07-23T10:13:31;2.58;;;1.98;;
12467;SDS011;57850;52.922;6.256;2022-07-23T10:16:16;2.47;;;1.98;;
12467;SDS011;57850;52.922;6.256;2022-07-23T10:18:42;3.35;;;1.60;;
12467;SDS011;57850;52.922;6.256;2022-07-23T10:21:09;3.88;;;1.70;;
12467;SDS011;57850;52.922;6.256;2022-07-23T10:23:39;3.85;;;2.03;;
12467;SDS011;57850;52.922;6.256;2022-07-23T10:26:15;2.13;;;1.73;;
12467;SDS011;57850;52.922;6.256;2022-07-23T10:28:54;3.65;;;1.80;;
12467;SDS011;57850;52.922;6.256;2022-07-23T10:31:31;4.65;;;1.75;;
12467;SDS011;57850;52.922;6.256;2022-07-23T10:34:12;3.53;;;2.08;;
12467;SDS011;57850;52.922;6.256;2022-07-23T10:36:47;3.92;;;1.90;;
12467;SDS011;57850;52.922;6.256;2022-07-23T10:39:19;2.88;;;2.40;;
12467;SDS011;57850;52.922;6.256;2022-07-23T10:41:49;7.15;;;2.13;;
12467;SDS011;57850;52.922;6.256;2022-07-23T10:44:18;1.90;;;1.70;;
12467;SDS011;57850;52.922;6.256;2022-07-23T10:46:55;2.15;;;1.95;;
12467;SDS011;57850;52.922;6.256;2022-07-23T10:49:32;2.00;;;1.90;;
12467;SDS011;57850;52.922;6.256;2022-07-23T10:52:16;2.00;;;1.90;;
12467;SDS011;57850;52.922;6.256;2022-07-23T10:54:45;6.28;;;2.35;;
12467;SDS011;57850;52.922;6.256;2022-07-23T10:57:14;5.60;;;2.33;;
12467;SDS011;57850;52.922;6.256;2022-07-23T11:02:41;3.38;;;1.92;;
12467;SDS011;57850;52.922;6.256;2022-07-23T11:05:09;3.95;;;2.00;;
12467;SDS011;57850;52.922;6.256;2022-07-23T11:10:43;2.42;;;2.22;;
12467;SDS011;57850;52.922;6.256;2022-07-23T11:16:14;3.30;;;2.72;;
12467;SDS011;57850;52.922;6.256;2022-07-23T11:18:57;2.55;;;2.28;;
12467;SDS011;57850;52.922;6.256;2022-07-23T11:21:41;4.32;;;2.65;;
12467;SDS011;57850;52.922;6.256;2022-07-23T11:24:20;4.03;;;2.38;;
12467;SDS011;57850;52.922;6.256;2022-07-23T11:26:57;2.30;;;2.10;;
12467;SDS011;57850;52.922;6.256;2022-07-23T11:29:41;2.40;;;2.20;;
12467;SDS011;57850;52.922;6.256;2022-07-23T11:35:00;3.55;;;2.42;;
12467;SDS011;57850;52.922;6.256;2022-07-23T11:37:28;2.75;;;2.50;;
12467;SDS011;57850;52.922;6.256;2022-07-23T11:40:04;2.67;;;2.30;;
12467;SDS011;57850;52.922;6.256;2022-07-23T11:42:36;4.30;;;2.38;;
12467;SDS011;57850;52.922;6.256;2022-07-23T11:45:04;3.60;;;2.70;;
12467;SDS011;57850;52.922;6.256;2022-07-23T11:47:32;3.20;;;2.67;;
12467;SDS011;57850;52.922;6.256;2022-07-23T11:50:01;2.65;;;2.45;;
12467;SDS011;57850;52.922;6.256;2022-07-23T11:52:29;4.60;;;2.78;;
12467;SDS011;57850;52.922;6.256;2022-07-23T11:54:57;4.35;;;2.17;;
12467;SDS011;57850;52.922;6.256;2022-07-23T11:57:26;2.60;;;2.40;;
12467;SDS011;57850;52.922;6.256;2022-07-23T11:59:56;5.90;;;3.00;;
12467;SDS011;57850;52.922;6.256;2022-07-23T12:02:24;4.47;;;2.38;;
12467;SDS011;57850;52.922;6.256;2022-07-23T12:04:51;3.55;;;2.80;;
12467;SDS011;57850;52.922;6.256;2022-07-23T12:07:29;3.15;;;2.42;;
12467;SDS011;57850;52.922;6.256;2022-07-23T12:09:57;4.78;;;2.42;;
12467;SDS011;57850;52.922;6.256;2022-07-23T12:12:24;5.18;;;2.50;;
12467;SDS011;57850;52.922;6.256;2022-07-23T12:14:51;4.38;;;2.70;;
12467;SDS011;57850;52.922;6.256;2022-07-23T12:17:21;2.60;;;2.40;;
12467;SDS011;57850;52.922;6.256;2022-07-23T12:19:54;3.25;;;2.33;;
12467;SDS011;57850;52.922;6.256;2022-07-23T12:22:22;3.72;;;2.35;;
12467;SDS011;57850;52.922;6.256;2022-07-23T12:24:54;2.28;;;2.08;;
12467;SDS011;57850;52.922;6.256;2022-07-23T12:27:21;2.30;;;2.10;;
12467;SDS011;57850;52.922;6.256;2022-07-23T12:29:48;2.78;;;2.10;;
12467;SDS011;57850;52.922;6.256;2022-07-23T12:32:19;3.47;;;2.50;;
12467;SDS011;57850;52.922;6.256;2022-07-23T12:34:49;4.60;;;2.35;;
12467;SDS011;57850;52.922;6.256;2022-07-23T12:37:27;2.78;;;2.50;;
12467;SDS011;57850;52.922;6.256;2022-07-23T12:39:54;3.45;;;2.20;;
12467;SDS011;57850;52.922;6.256;2022-07-23T12:42:20;3.85;;;2.58;;
12467;SDS011;57850;52.922;6.256;2022-07-23T12:45:08;4.40;;;2.72;;
12467;SDS011;57850;52.922;6.256;2022-07-23T12:47:53;4.10;;;2.50;;
12467;SDS011;57850;52.922;6.256;2022-07-23T12:50:36;3.15;;;2.40;;
12467;SDS011;57850;52.922;6.256;2022-07-23T12:53:06;4.18;;;2.85;;
12467;SDS011;57850;52.922;6.256;2022-07-23T12:55:34;2.80;;;2.60;;
12467;SDS011;57850;52.922;6.256;2022-07-23T12:58:09;3.15;;;2.42;;
12467;SDS011;57850;52.922;6.256;2022-07-23T13:00:53;2.50;;;2.30;;
12467;SDS011;57850;52.922;6.256;2022-07-23T13:03:29;3.85;;;2.78;;
12467;SDS011;57850;52.922;6.256;2022-07-23T13:06:02;2.65;;;2.42;;
12467;SDS011;57850;52.922;6.256;2022-07-23T13:08:31;3.47;;;2.55;;
12467;SDS011;57850;52.922;6.256;2022-07-23T13:10:59;2.40;;;1.90;;
12467;SDS011;57850;52.922;6.256;2022-07-23T13:13:27;3.60;;;2.78;;
12467;SDS011;57850;52.922;6.256;2022-07-23T13:15:55;2.72;;;2.53;;
12467;SDS011;57850;52.922;6.256;2022-07-23T13:18:22;2.92;;;2.60;;
12467;SDS011;57850;52.922;6.256;2022-07-23T13:20:49;3.08;;;2.15;;
12467;SDS011;57850;52.922;6.256;2022-07-23T13:23:17;2.92;;;2.20;;
12467;SDS011;57850;52.922;6.256;2022-07-23T13:25:44;2.47;;;1.98;;
12467;SDS011;57850;52.922;6.256;2022-07-23T13:28:12;2.92;;;2.70;;
12467;SDS011;57850;52.922;6.256;2022-07-23T13:30:39;2.75;;;2.55;;
12467;SDS011;57850;52.922;6.256;2022-07-23T13:33:05;3.17;;;2.70;;
12467;SDS011;57850;52.922;6.256;2022-07-23T13:35:32;5.22;;;2.45;;
12467;SDS011;57850;52.922;6.256;2022-07-23T13:38:00;3.92;;;2.58;;
12467;SDS011;57850;52.922;6.256;2022-07-23T13:40:28;2.35;;;2.15;;
12467;SDS011;57850;52.922;6.256;2022-07-23T13:42:54;2.45;;;2.30;;
12467;SDS011;57850;52.922;6.256;2022-07-23T13:45:21;2.30;;;2.10;;
12467;SDS011;57850;52.922;6.256;2022-07-23T13:47:47;4.13;;;2.85;;
12467;SDS011;57850;52.922;6.256;2022-07-23T13:50:14;3.78;;;2.65;;
12467;SDS011;57850;52.922;6.256;2022-07-23T13:52:41;2.95;;;2.50;;
12467;SDS011;57850;52.922;6.256;2022-07-23T13:55:08;4.22;;;2.90;;
12467;SDS011;57850;52.922;6.256;2022-07-23T13:57:36;2.78;;;2.53;;
12467;SDS011;57850;52.922;6.256;2022-07-23T14:00:03;3.45;;;2.67;;
12467;SDS011;57850;52.922;6.256;2022-07-23T14:02:33;4.10;;;2.40;;
12467;SDS011;57850;52.922;6.256;2022-07-23T14:05:01;3.10;;;2.63;;
12467;SDS011;57850;52.922;6.256;2022-07-23T14:07:28;2.65;;;2.45;;
12467;SDS011;57850;52.922;6.256;2022-07-23T14:09:55;4.18;;;2.58;;
12467;SDS011;57850;52.922;6.256;2022-07-23T14:12:21;3.25;;;2.95;;
12467;SDS011;57850;52.922;6.256;2022-07-23T14:14:49;2.67;;;2.47;;
12467;SDS011;57850;52.922;6.256;2022-07-23T14:17:15;3.10;;;2.83;;
12467;SDS011;57850;52.922;6.256;2022-07-23T14:19:42;4.18;;;2.30;;
12467;SDS011;57850;52.922;6.256;2022-07-23T14:22:08;3.65;;;2.55;;
12467;SDS011;57850;52.922;6.256;2022-07-23T14:24:35;2.78;;;2.30;;
12467;SDS011;57850;52.922;6.256;2022-07-23T14:27:02;5.75;;;2.58;;
12467;SDS011;57850;52.922;6.256;2022-07-23T14:29:30;3.45;;;2.60;;
12467;SDS011;57850;52.922;6.256;2022-07-23T14:31:59;4.80;;;2.75;;
12467;SDS011;57850;52.922;6.256;2022-07-23T14:34:25;3.45;;;2.50;;
12467;SDS011;57850;52.922;6.256;2022-07-23T14:36:52;4.18;;;2.58;;
12467;SDS011;57850;52.922;6.256;2022-07-23T14:39:19;2.45;;;2.15;;
12467;SDS011;57850;52.922;6.256;2022-07-23T14:41:45;2.22;;;2.13;;
12467;SDS011;57850;52.922;6.256;2022-07-23T14:44:12;3.08;;;2.75;;
12467;SDS011;57850;52.922;6.256;2022-07-23T14:46:38;4.07;;;2.50;;
12467;SDS011;57850;52.922;6.256;2022-07-23T14:49:06;4.63;;;2.50;;
12467;SDS011;57850;52.922;6.256;2022-07-23T14:51:33;3.47;;;2.40;;
12467;SDS011;57850;52.922;6.256;2022-07-23T14:54:00;3.88;;;2.50;;
12467;SDS011;57850;52.922;6.256;2022-07-23T14:56:26;2.63;;;2.05;;
12467;SDS011;57850;52.922;6.256;2022-07-23T14:58:53;3.40;;;2.30;;
12467;SDS011;57850;52.922;6.256;2022-07-23T15:01:20;2.67;;;2.47;;
12467;SDS011;57850;52.922;6.256;2022-07-23T15:03:47;2.35;;;2.20;;
12467;SDS011;57850;52.922;6.256;2022-07-23T15:06:15;2.90;;;2.20;;